Time;durP1;ratioP1;P1;durP2;ratioP2;P2;SDS_P1;SDS_P2;PMS_P1;PMS_P2;Temp;Humidity;BMP_temperature;BMP_pressure;BME280_temperature;BME280_humidity;BME280_pressure;Samples;Min_cycle;Max_cycle;Signal;HPM_P1;HPM_P2
2023/07/09 00:02:26;;;;;;;10.25;7.05;;;;;;;24.44;94.28;101587.50;5206532;28;20053;-65
2023/07/09 00:04:58;;;;;;;;;;;;;;;25.33;81.42;101579.03;5207926;28;20077;-67
2023/07/09 00:07:33;;;;;;;9.77;7.50;;;;;;;24.44;92.97;101582.97;5208169;28;19917;-68
2023/07/09 00:10:13;;;;;;;12.55;8.57;;;;;;;24.35;92.45;101578.78;5207635;28;20022;-66
2023/07/09 00:12:45;;;;;;;13.02;8.07;;;;;;;24.28;92.01;101583.28;5207388;28;20186;-69
2023/07/09 00:15:18;;;;;;;9.93;8.23;;;;;;;24.25;95.41;101587.22;5206434;28;20148;-67
2023/07/09 00:17:49;;;;;;;13.18;8.48;;;;;;;24.21;96.58;101585.97;5207266;28;21298;-68
2023/07/09 00:20:20;;;;;;;15.47;8.63;;;;;;;24.22;97.34;101592.16;5205018;28;20567;-68
2023/07/09 00:22:54;;;;;;;14.60;8.13;;;;;;;24.18;96.85;101590.91;5207991;28;20514;-67
2023/07/09 00:25:25;;;;;;;12.88;8.27;;;;;;;24.08;99.13;101590.47;5207494;28;20084;-70
2023/07/09 00:27:57;;;;;;;9.23;7.73;;;;;;;24.09;100.00;101595.59;5207188;28;20065;-67
2023/07/09 00:30:28;;;;;;;12.80;8.40;;;;;;;24.10;100.00;101596.44;5205093;28;20518;-68
2023/07/09 00:33:01;;;;;;;12.07;8.43;;;;;;;24.04;100.00;101600.75;5207558;28;20048;-68
2023/07/09 00:35:32;;;;;;;12.30;8.20;;;;;;;24.00;100.00;101597.63;5205368;28;20052;-68
2023/07/09 00:38:04;;;;;;;15.87;8.63;;;;;;;23.98;100.00;101601.53;5205748;28;20499;-66
2023/07/09 00:40:35;;;;;;;9.50;8.23;;;;;;;23.97;100.00;101608.75;5206642;28;20032;-68
2023/07/09 00:43:15;;;;;;;11.60;7.93;;;;;;;24.15;100.00;101605.53;5206803;28;20113;-66
2023/07/09 00:46:27;;;;;;;13.20;7.55;;;;;;;24.25;100.00;101607.81;5205153;28;20499;-67
2023/07/09 00:49:00;;;;;;;12.30;7.68;;;;;;;23.85;100.00;101610.34;5205288;28;20033;-67
2023/07/09 00:51:36;;;;;;;14.15;8.23;;;;;;;23.79;100.00;101601.28;5205803;28;20183;-68
2023/07/09 00:54:30;;;;;;;10.15;7.68;;;;;;;23.99;100.00;101604.03;5205364;28;20026;-67
2023/07/09 00:57:08;;;;;;;11.48;8.43;;;;;;;23.83;100.00;101611.56;5205507;28;20141;-70
2023/07/09 00:59:41;;;;;;;9.85;7.43;;;;;;;23.71;100.00;101605.94;5208250;28;20071;-69
2023/07/09 01:02:12;;;;;;;11.75;8.85;;;;;;;23.72;100.00;101605.78;5205056;28;20025;-69
2023/07/09 01:04:44;;;;;;;12.73;8.73;;;;;;;23.74;100.00;101601.03;5208365;28;20030;-68
2023/07/09 01:07:16;;;;;;;12.00;8.03;;;;;;;23.75;100.00;101599.16;5207281;28;20029;-70
2023/07/09 01:09:48;;;;;;;9.63;7.47;;;;;;;23.72;100.00;101607.63;5207570;28;20030;-69
2023/07/09 01:12:20;;;;;;;12.90;8.20;;;;;;;23.74;100.00;101602.88;5206542;28;20033;-66
2023/07/09 01:14:58;;;;;;;13.05;8.43;;;;;;;23.73;100.00;101598.56;5207549;28;20050;-68
2023/07/09 01:17:29;;;;;;;10.88;8.05;;;;;;;23.66;100.00;101598.53;5205565;28;20025;-67
2023/07/09 01:20:01;;;;;;;11.47;8.40;;;;;;;23.69;100.00;101595.47;5206780;28;20425;-67
2023/07/09 01:22:32;;;;;;;11.70;8.43;;;;;;;23.68;100.00;101588.47;5188784;28;20017;-68
2023/07/09 01:25:06;;;;;;;9.53;8.13;;;;;;;23.65;100.00;101602.19;5208696;28;20403;-67
2023/07/09 01:27:41;;;;;;;11.77;8.38;;;;;;;23.59;100.00;101597.63;5207117;28;20034;-69
2023/07/09 01:30:32;;;;;;;11.98;7.88;;;;;;;23.79;100.00;101603.13;5207184;28;21209;-67
2023/07/09 01:33:03;;;;;;;12.05;8.43;;;;;;;23.47;100.00;101600.03;5207735;28;20088;-67
2023/07/09 01:35:37;;;;;;;10.50;8.63;;;;;;;23.45;100.00;101602.09;5208621;28;20022;-68
2023/07/09 01:38:08;;;;;;;13.20;8.95;;;;;;;23.37;100.00;101606.75;5205880;28;20587;-68
2023/07/09 01:40:39;;;;;;;9.70;8.13;;;;;;;23.44;100.00;101600.41;5208428;28;20052;-67
2023/07/09 01:43:11;;;;;;;11.40;8.10;;;;;;;23.43;100.00;101603.31;5206738;28;20030;-68
2023/07/09 01:45:42;;;;;;;9.87;8.13;;;;;;;23.40;100.00;101607.19;5207795;28;20967;-67
2023/07/09 01:48:15;;;;;;;9.90;7.97;;;;;;;23.33;100.00;101606.31;5208312;28;20065;-71
2023/07/09 01:50:49;;;;;;;11.40;8.07;;;;;;;23.28;100.00;101606.91;5208086;28;20040;-68
2023/07/09 01:53:26;;;;;;;9.43;7.90;;;;;;;23.38;100.00;101617.28;5206475;28;20036;-68
2023/07/09 01:55:57;;;;;;;13.38;8.40;;;;;;;23.29;100.00;101616.56;5206892;28;20033;-71
2023/07/09 01:58:30;;;;;;;11.67;8.40;;;;;;;23.35;100.00;101614.97;5209575;28;20119;-68
2023/07/09 02:01:02;;;;;;;10.18;8.43;;;;;;;23.34;100.00;101625.88;5210840;28;20061;-67
2023/07/09 02:03:33;;;;;;;9.00;7.70;;;;;;;23.42;100.00;101634.56;5212091;28;20116;-67
2023/07/09 02:06:09;;;;;;;9.20;7.67;;;;;;;23.41;100.00;101619.56;5210678;28;20022;-66
2023/07/09 02:08:40;;;;;;;11.65;8.25;;;;;;;23.41;100.00;101611.53;5211405;28;20033;-68
2023/07/09 02:11:11;;;;;;;9.43;8.13;;;;;;;23.42;100.00;101623.88;5210277;28;20535;-66
2023/07/09 02:13:43;;;;;;;13.03;8.03;;;;;;;23.42;100.00;101623.06;5209292;28;20034;-67
2023/07/09 02:16:14;;;;;;;9.93;8.00;;;;;;;23.39;100.00;101632.28;5210672;28;20037;-67
2023/07/09 02:18:46;;;;;;;9.03;7.70;;;;;;;23.48;100.00;101631.09;5211073;28;20766;-68
2023/07/09 02:21:17;;;;;;;12.43;8.50;;;;;;;23.40;100.00;101625.91;5211270;28;20029;-68
2023/07/09 02:23:49;;;;;;;12.30;8.00;;;;;;;23.34;100.00;101626.72;5211431;28;20392;-68
2023/07/09 02:26:20;;;;;;;9.17;8.23;;;;;;;23.35;100.00;101617.66;5211117;28;20026;-68
2023/07/09 02:28:51;;;;;;;10.73;8.03;;;;;;;23.34;100.00;101621.38;5211348;28;20045;-68
2023/07/09 02:31:22;;;;;;;11.07;8.50;;;;;;;23.26;100.00;101616.13;5211273;28;20380;-68
2023/07/09 02:33:54;;;;;;;12.40;8.90;;;;;;;23.31;100.00;101619.06;5211016;28;20483;-68
2023/07/09 02:36:25;;;;;;;9.33;7.80;;;;;;;23.27;100.00;101620.47;5211241;28;20385;-68
2023/07/09 02:38:57;;;;;;;10.60;7.97;;;;;;;23.22;100.00;101618.41;5211209;28;20459;-68
2023/07/09 02:41:28;;;;;;;10.43;8.10;;;;;;;23.19;100.00;101618.78;5209480;28;20483;-67
2023/07/09 02:43:59;;;;;;;9.23;7.37;;;;;;;23.19;100.00;101626.81;5210599;28;20049;-68
2023/07/09 02:46:30;;;;;;;10.43;7.43;;;;;;;23.21;100.00;101618.56;5209994;28;20029;-69
2023/07/09 02:49:06;;;;;;;9.73;7.93;;;;;;;23.25;100.00;101620.66;5208284;28;20515;-66
2023/07/09 02:51:38;;;;;;;9.88;8.27;;;;;;;23.01;100.00;101621.94;5209423;28;20332;-68
2023/07/09 02:54:10;;;;;;;9.32;8.10;;;;;;;23.02;100.00;101622.75;5208697;28;20117;-67
2023/07/09 02:56:41;;;;;;;9.80;8.33;;;;;;;23.04;100.00;101621.53;5209752;28;20038;-67
2023/07/09 02:59:12;;;;;;;11.40;8.23;;;;;;;22.96;100.00;101619.03;5209924;28;20053;-67
2023/07/09 03:01:43;;;;;;;10.23;7.50;;;;;;;22.97;100.00;101623.34;5209902;28;20038;-68
2023/07/09 03:04:15;;;;;;;11.10;8.30;;;;;;;22.89;100.00;101623.44;5209218;28;20057;-67
2023/07/09 03:06:47;;;;;;;10.87;8.90;;;;;;;22.92;100.00;101622.25;5210019;28;20029;-67
2023/07/09 03:09:19;;;;;;;11.37;8.90;;;;;;;22.87;100.00;101621.97;5208566;28;20171;-68
2023/07/09 03:11:50;;;;;;;10.10;8.55;;;;;;;22.91;100.00;101618.75;5209109;28;20416;-68
2023/07/09 03:14:22;;;;;;;11.33;8.87;;;;;;;22.92;100.00;101623.09;5209491;28;20121;-67
2023/07/09 03:16:54;;;;;;;10.30;8.33;;;;;;;22.89;100.00;101623.44;5210042;28;20450;-67
2023/07/09 03:19:25;;;;;;;9.87;8.67;;;;;;;22.86;100.00;101612.31;5210585;28;20048;-67
2023/07/09 03:21:56;;;;;;;10.20;8.07;;;;;;;22.91;100.00;101624.09;5209741;28;20037;-68
2023/07/09 03:24:27;;;;;;;9.10;8.13;;;;;;;22.83;100.00;101618.84;5210599;28;20079;-68
2023/07/09 03:26:59;;;;;;;9.73;8.47;;;;;;;22.82;100.00;101623.38;5210204;28;20045;-67
2023/07/09 03:29:30;;;;;;;10.37;8.53;;;;;;;22.77;100.00;101620.47;5207649;28;20041;-67
2023/07/09 03:32:01;;;;;;;13.20;8.80;;;;;;;22.75;100.00;101619.81;5208006;28;20037;-66
2023/07/09 03:34:33;;;;;;;10.77;8.60;;;;;;;22.77;100.00;101623.13;5206443;28;20038;-66
2023/07/09 03:37:04;;;;;;;11.53;8.97;;;;;;;22.76;100.00;101616.13;5207660;28;20034;-66
2023/07/09 03:39:35;;;;;;;9.93;8.83;;;;;;;22.72;100.00;101616.69;5208623;28;20029;-65
2023/07/09 03:42:07;;;;;;;12.77;8.80;;;;;;;22.68;100.00;101618.94;5206662;28;20038;-67
2023/07/09 03:44:38;;;;;;;13.10;8.20;;;;;;;22.65;100.00;101613.97;5208785;28;20072;-66
2023/07/09 03:47:09;;;;;;;11.00;8.10;;;;;;;22.62;100.00;101614.38;5205694;28;20041;-66
2023/07/09 03:49:41;;;;;;;9.87;8.23;;;;;;;22.62;100.00;101614.38;5208476;28;20128;-66
2023/07/09 03:52:12;;;;;;;11.73;8.57;;;;;;;22.57;100.00;101620.25;5204961;28;20033;-67
2023/07/09 03:54:44;;;;;;;13.87;10.53;;;;;;;22.55;100.00;101616.13;5206576;28;20037;-67
2023/07/09 03:57:15;;;;;;;11.00;9.07;;;;;;;22.55;100.00;101616.97;5209670;28;20034;-66
2023/07/09 03:59:46;;;;;;;9.93;8.87;;;;;;;22.65;100.00;101613.13;5204795;28;20141;-66
2023/07/09 04:02:18;;;;;;;11.13;9.23;;;;;;;22.61;100.00;101615.38;5206560;28;20092;-67
2023/07/09 04:04:49;;;;;;;13.63;9.30;;;;;;;22.63;100.00;101618.69;5206658;28;20040;-68
2023/07/09 04:07:20;;;;;;;10.77;9.37;;;;;;;22.62;100.00;101616.22;5205061;28;20065;-67
2023/07/09 04:09:52;;;;;;;12.00;9.20;;;;;;;22.69;100.00;101609.06;5208184;28;20029;-65
2023/07/09 04:12:23;;;;;;;11.70;9.90;;;;;;;22.67;100.00;101609.28;5204834;28;20041;-66
2023/07/09 04:14:54;;;;;;;10.53;8.77;;;;;;;22.76;100.00;101620.63;5204472;28;20034;-66
2023/07/09 04:17:25;;;;;;;11.30;10.10;;;;;;;22.76;100.00;101612.63;5205375;28;20033;-67
2023/07/09 04:19:57;;;;;;;13.30;10.03;;;;;;;22.77;100.00;101615.13;5205163;28;20033;-67
2023/07/09 04:22:28;;;;;;;12.00;9.40;;;;;;;22.85;100.00;101621.34;5207808;28;20054;-67
2023/07/09 04:24:59;;;;;;;11.90;9.93;;;;;;;22.90;100.00;101624.28;5209160;28;20038;-67
2023/07/09 04:27:31;;;;;;;11.17;9.93;;;;;;;22.96;100.00;101623.53;5207129;28;20326;-66
2023/07/09 04:30:05;;;;;;;12.73;9.60;;;;;;;22.99;100.00;101621.28;5207919;28;20026;-65
2023/07/09 04:32:37;;;;;;;15.00;10.32;;;;;;;22.91;100.00;101623.25;5206133;28;20029;-66
2023/07/09 04:35:11;;;;;;;12.38;10.82;;;;;;;22.94;100.00;101614.88;5204641;28;20017;-66
2023/07/09 04:37:42;;;;;;;13.00;10.48;;;;;;;22.98;100.00;101616.13;5206531;28;20042;-66
2023/07/09 04:40:13;;;;;;;12.47;10.50;;;;;;;23.07;100.00;101615.00;5201791;28;21039;-67
2023/07/09 04:42:45;;;;;;;12.23;9.67;;;;;;;23.18;100.00;101617.09;5208472;28;20018;-68
2023/07/09 04:45:16;;;;;;;12.50;9.60;;;;;;;23.27;100.00;101620.47;5209527;28;20057;-66
2023/07/09 04:47:47;;;;;;;14.10;10.57;;;;;;;23.34;100.00;101620.53;5208416;28;20468;-70
2023/07/09 04:50:18;;;;;;;11.97;10.77;;;;;;;23.32;100.00;101612.69;5207965;28;20451;-67
2023/07/09 04:52:52;;;;;;;14.57;11.03;;;;;;;23.41;100.00;101610.69;5208973;28;20427;-67
2023/07/09 04:55:23;;;;;;;11.95;10.35;;;;;;;23.49;100.00;101614.06;5208423;28;20042;-66
2023/07/09 04:57:54;;;;;;;12.57;10.77;;;;;;;23.61;100.00;101616.19;5209785;28;20025;-66
2023/07/09 05:00:26;;;;;;;12.93;10.47;;;;;;;23.67;100.00;101615.41;5208590;28;20507;-66
2023/07/09 05:02:57;;;;;;;12.13;10.80;;;;;;;23.68;100.00;101614.41;5207682;28;20425;-66
2023/07/09 05:05:28;;;;;;;12.93;10.37;;;;;;;23.78;100.00;101617.50;5209975;28;20042;-67
2023/07/09 05:08:00;;;;;;;12.20;10.63;;;;;;;23.91;100.00;101614.09;5209453;28;20030;-67
2023/07/09 05:10:31;;;;;;;12.70;9.43;;;;;;;23.92;100.00;101615.72;5207572;28;20033;-66
2023/07/09 05:13:02;;;;;;;9.97;8.97;;;;;;;24.07;100.00;101623.63;5206331;28;20129;-67
2023/07/09 05:15:34;;;;;;;11.57;8.80;;;;;;;24.15;100.00;101618.91;5208112;28;20049;-66
2023/07/09 05:18:05;;;;;;;11.20;9.17;;;;;;;24.15;100.00;101616.22;5207859;28;20034;-68
2023/07/09 05:20:36;;;;;;;12.57;9.00;;;;;;;24.25;100.00;101616.69;5207377;28;20044;-69
2023/07/09 05:23:09;;;;;;;10.27;9.03;;;;;;;24.34;100.00;101621.84;5208419;28;20438;-66
2023/07/09 05:25:40;;;;;;;;;;;;;;;25.01;100.00;101626.28;5207461;28;20170;-67
2023/07/09 05:28:12;;;;;;;14.00;8.85;;;;;;;24.55;100.00;101621.72;5208659;28;20386;-69
2023/07/09 05:30:43;;;;;;;10.97;8.47;;;;;;;24.67;100.00;101622.75;5205985;28;20030;-70
2023/07/09 05:33:14;;;;;;;11.97;8.30;;;;;;;24.64;100.00;101623.16;5210029;28;20033;-67
2023/07/09 05:35:46;;;;;;;12.30;7.97;;;;;;;24.73;100.00;101616.56;5212558;28;20029;-70
2023/07/09 05:38:17;;;;;;;10.43;8.50;;;;;;;24.83;100.00;101618.03;5210465;28;20360;-68
2023/07/09 05:40:57;;;;;;;14.57;8.97;;;;;;;24.89;100.00;101611.84;5211429;28;20029;-66
2023/07/09 05:43:30;;;;;;;11.95;8.43;;;;;;;24.87;100.00;101612.06;5210580;28;20033;-68
2023/07/09 05:46:03;;;;;;;12.20;8.45;;;;;;;24.99;100.00;101613.06;5212600;28;20052;-68
2023/07/09 05:48:34;;;;;;;9.95;7.75;;;;;;;25.10;100.00;101617.03;5211480;28;20026;-68
2023/07/09 05:51:05;;;;;;;9.57;7.67;;;;;;;25.26;100.00;101618.44;5212344;28;20403;-68
2023/07/09 05:53:37;;;;;;;11.17;8.27;;;;;;;25.34;100.00;101623.59;5195412;28;20030;-67
2023/07/09 05:56:08;;;;;;;12.73;8.13;;;;;;;25.39;100.00;101625.66;5212469;28;20041;-67
2023/07/09 05:58:39;;;;;;;9.47;7.97;;;;;;;25.56;100.00;101620.66;5207764;28;20161;-67
2023/07/09 06:01:10;;;;;;;10.93;8.73;;;;;;;25.68;100.00;101624.34;5191380;28;20034;-66
2023/07/09 06:03:42;;;;;;;8.20;6.83;;;;;;;25.80;100.00;101622.69;5192375;28;20030;-67
2023/07/09 06:06:14;;;;;;;9.83;7.63;;;;;;;25.88;100.00;101627.81;5189923;28;20014;-68
2023/07/09 06:08:46;;;;;;;11.20;7.50;;;;;;;25.93;100.00;101625.31;5192025;28;20036;-68
2023/07/09 06:11:17;;;;;;;;;;;;;;;26.57;96.65;101628.13;5192326;28;20563;-67
2023/07/09 06:13:49;;;;;;;10.97;7.40;;;;;;;26.25;93.83;101630.72;5190457;28;19921;-68
2023/07/09 06:16:20;;;;;;;10.23;6.93;;;;;;;26.32;93.02;101633.38;5189447;28;20531;-67
2023/07/09 06:18:51;;;;;;;12.20;7.73;;;;;;;26.40;91.75;101628.59;5190573;28;20408;-68
2023/07/09 06:21:23;;;;;;;9.93;7.70;;;;;;;26.59;92.05;101629.53;5190763;28;20026;-67
2023/07/09 06:23:54;;;;;;;10.67;7.63;;;;;;;26.65;89.29;101633.22;5190025;28;20072;-66
2023/07/09 06:26:25;;;;;;;8.77;7.30;;;;;;;26.83;86.24;101635.97;5190241;28;20068;-68
2023/07/09 06:28:56;;;;;;;9.07;7.10;;;;;;;26.81;88.65;101635.38;5191573;28;20060;-68
2023/07/09 06:31:28;;;;;;;10.50;7.27;;;;;;;26.99;86.15;101639.97;5189714;28;20103;-67
2023/07/09 06:33:59;;;;;;;7.67;6.87;;;;;;;27.15;81.56;101635.94;5190055;28;20081;-67
2023/07/09 06:36:30;;;;;;;9.97;7.30;;;;;;;27.16;84.62;101629.50;5188652;28;20030;-66
2023/07/09 06:39:02;;;;;;;8.77;6.80;;;;;;;27.20;90.60;101635.28;5189966;28;20496;-67
2023/07/09 06:41:38;;;;;;;9.38;7.07;;;;;;;27.40;80.51;101634.03;5189178;28;20030;-69
2023/07/09 06:44:10;;;;;;;8.88;6.97;;;;;;;27.47;83.79;101627.78;5188117;28;20057;-68
2023/07/09 06:46:41;;;;;;;14.20;7.30;;;;;;;27.56;79.26;101629.13;5188417;28;20195;-68
2023/07/09 06:49:12;;;;;;;9.67;7.33;;;;;;;27.82;76.03;101626.16;5190252;28;20061;-67
2023/07/09 06:51:43;;;;;;;9.40;6.47;;;;;;;27.78;79.31;101630.34;5190525;28;20395;-68
2023/07/09 06:54:15;;;;;;;10.03;6.30;;;;;;;28.03;76.01;101637.50;5190217;28;20038;-68
2023/07/09 06:56:47;;;;;;;9.63;6.40;;;;;;;28.13;69.31;101635.91;5190270;28;20084;-67
2023/07/09 06:59:18;;;;;;;7.97;6.23;;;;;;;28.36;68.10;101637.88;5200315;28;20049;-68
2023/07/09 07:01:49;;;;;;;9.23;6.13;;;;;;;28.36;67.21;101637.06;5210019;28;20288;-68
2023/07/09 07:04:21;;;;;;;8.70;6.23;;;;;;;28.54;62.46;101638.91;5210397;28;20110;-68
2023/07/09 07:06:52;;;;;;;7.57;5.83;;;;;;;28.64;62.92;101641.88;5211531;28;20030;-67
2023/07/09 07:09:23;;;;;;;8.17;6.30;;;;;;;28.90;60.85;101647.88;5211204;28;20434;-67
2023/07/09 07:11:55;;;;;;;10.10;6.87;;;;;;;28.92;62.42;101643.06;5211287;28;20038;-67
2023/07/09 07:14:26;;;;;;;9.70;6.47;;;;;;;29.03;60.67;101650.41;5211228;28;20033;-68
2023/07/09 07:16:57;;;;;;;8.83;6.47;;;;;;;29.18;57.17;101648.06;5206777;28;20049;-68
2023/07/09 07:19:29;;;;;;;10.37;6.63;;;;;;;29.24;56.99;101651.69;5207268;28;20040;-67
2023/07/09 07:22:00;;;;;;;9.43;6.97;;;;;;;29.32;57.98;101657.56;5209726;28;20430;-68
2023/07/09 07:24:31;;;;;;;10.57;6.43;;;;;;;29.49;53.82;101654.94;5209933;28;20447;-68
2023/07/09 07:27:03;;;;;;;8.70;5.90;;;;;;;29.57;54.01;101656.47;5205538;28;20176;-67
2023/07/09 07:29:34;;;;;;;7.27;5.67;;;;;;;29.63;55.93;101657.44;5206492;28;20034;-68
2023/07/09 07:32:06;;;;;;;9.50;5.43;;;;;;;29.75;52.99;101653.66;5204445;28;20037;-67
2023/07/09 07:34:37;;;;;;;11.10;5.40;;;;;;;29.82;52.97;101653.53;5208900;28;20720;-66
2023/07/09 07:37:09;;;;;;;7.27;5.50;;;;;;;29.87;55.81;101652.81;5209101;28;20026;-67
2023/07/09 07:39:40;;;;;;;7.27;5.20;;;;;;;30.01;52.26;101655.00;5205922;28;20034;-68
2023/07/09 07:42:11;;;;;;;9.20;5.50;;;;;;;30.17;51.46;101648.03;5206229;28;20026;-68
2023/07/09 07:44:43;;;;;;;8.93;5.43;;;;;;;30.21;52.77;101642.97;5208733;28;20029;-67
2023/07/09 07:47:14;;;;;;;10.00;5.73;;;;;;;30.33;50.84;101648.31;5208836;28;20163;-68
2023/07/09 07:49:45;;;;;;;9.97;6.17;;;;;;;30.37;51.34;101646.75;5207646;28;20826;-66
2023/07/09 07:52:17;;;;;;;10.30;6.13;;;;;;;30.49;49.19;101639.41;5207924;28;20040;-68
2023/07/09 07:54:48;;;;;;;7.57;5.17;;;;;;;30.43;50.24;101643.09;5207992;28;20038;-67
2023/07/09 07:57:19;;;;;;;8.67;5.50;;;;;;;30.56;48.47;101641.97;5209177;28;20040;-69
2023/07/09 07:59:50;;;;;;;7.93;5.63;;;;;;;30.67;47.98;101646.47;5209573;28;20046;-68
2023/07/09 08:02:24;;;;;;;9.43;6.00;;;;;;;30.72;48.14;101642.00;5207994;28;20112;-68
2023/07/09 08:04:55;;;;;;;7.00;5.57;;;;;;;30.87;47.35;101649.53;5209273;28;20467;-68
2023/07/09 08:07:27;;;;;;;7.57;5.30;;;;;;;30.93;48.04;101640.44;5208547;28;20030;-67
2023/07/09 08:09:58;;;;;;;7.50;5.60;;;;;;;31.05;47.84;101637.66;5208853;28;20057;-67
2023/07/09 08:12:29;;;;;;;10.43;5.50;;;;;;;31.10;46.73;101643.13;5209229;28;20084;-69
2023/07/09 08:15:01;;;;;;;8.37;5.50;;;;;;;31.23;46.51;101640.09;5208932;28;20036;-68
2023/07/09 08:17:32;;;;;;;11.90;5.60;;;;;;;31.43;47.20;101638.75;5208116;28;20115;-69
2023/07/09 08:20:04;;;;;;;8.33;6.10;;;;;;;31.42;46.37;101635.22;5208884;28;20026;-66
2023/07/09 08:22:35;;;;;;;9.05;5.78;;;;;;;31.40;44.75;101631.13;5208879;28;20025;-68
2023/07/09 08:25:07;;;;;;;8.97;6.30;;;;;;;31.53;44.43;101644.31;5191225;28;20120;-68
2023/07/09 08:27:38;;;;;;;7.10;5.40;;;;;;;31.53;45.04;101640.78;5206434;28;20104;-68
2023/07/09 08:30:10;;;;;;;7.10;5.97;;;;;;;31.58;45.00;101635.44;5208489;28;20101;-68
2023/07/09 08:32:41;;;;;;;7.97;5.63;;;;;;;31.70;45.76;101631.53;5209284;28;20042;-69
2023/07/09 08:35:13;;;;;;;10.83;5.47;;;;;;;31.74;47.87;101629.13;5208282;28;20495;-69
2023/07/09 08:37:44;;;;;;;8.47;5.87;;;;;;;31.78;45.08;101641.09;5207384;28;20065;-67
2023/07/09 08:40:17;;;;;;;11.27;5.73;;;;;;;32.00;44.28;101634.88;5207547;28;20420;-68
2023/07/09 08:42:56;;;;;;;9.75;5.85;;;;;;;32.04;45.13;101639.53;5209367;28;20026;-66
2023/07/09 08:45:51;;;;;;;9.73;6.07;;;;;;;32.46;46.00;101633.47;5208963;28;20049;-69
2023/07/09 08:48:31;;;;;;;7.55;6.20;;;;;;;32.54;43.90;101637.59;5207280;28;20029;-68
2023/07/09 08:51:16;;;;;;;11.27;6.32;;;;;;;32.40;44.66;101638.03;5208192;28;20061;-68
2023/07/09 08:53:48;;;;;;;7.90;5.32;;;;;;;32.44;43.63;101633.75;5209421;28;20052;-67
2023/07/09 08:56:20;;;;;;;9.47;6.30;;;;;;;32.60;43.75;101640.09;5209508;28;20045;-69
2023/07/09 08:58:54;;;;;;;7.68;5.63;;;;;;;32.73;43.67;101636.13;5208342;28;20510;-66
2023/07/09 09:01:41;;;;;;;7.18;5.22;;;;;;;32.81;42.29;101632.16;5207029;28;20156;-69
2023/07/09 09:04:25;;;;;;;7.22;5.78;;;;;;;33.17;42.30;101634.03;5207163;28;20544;-68
2023/07/09 09:07:13;;;;;;;7.00;5.20;;;;;;;33.30;41.68;101632.78;5206805;28;20119;-69
2023/07/09 09:09:54;;;;;;;6.45;5.32;;;;;;;33.30;42.31;101624.63;5207752;28;20026;-66
2023/07/09 09:12:59;;;;;;;8.52;5.10;;;;;;;33.72;42.17;101625.63;5208415;28;20431;-68
2023/07/09 09:15:30;;;;;;;9.07;5.60;;;;;;;33.29;42.74;101628.41;5201276;28;20384;-67
2023/07/09 09:18:20;;;;;;;;;;;;;;;34.30;40.70;101623.63;5207039;28;20037;-70
2023/07/09 09:20:57;;;;;;;8.48;5.72;;;;;;;33.80;40.62;101615.06;5208686;28;20367;-68
2023/07/09 09:23:38;;;;;;;10.48;4.97;;;;;;;33.87;40.90;101617.56;5207796;28;20691;-67
2023/07/09 09:26:18;;;;;;;6.60;5.50;;;;;;;34.01;39.78;101626.03;5206966;28;21403;-69
2023/07/09 09:28:50;;;;;;;7.80;5.05;;;;;;;34.04;39.55;101614.63;5207182;28;20503;-67
2023/07/09 09:31:24;;;;;;;;;;;;;;;34.96;39.80;101607.28;5208678;28;20077;-68
2023/07/09 09:33:55;;;;;;;8.93;5.93;;;;;;;34.10;39.57;101608.09;5207488;28;19964;-67
2023/07/09 09:36:27;;;;;;;;;;;;;;;35.02;39.48;101600.78;5208042;28;20117;-66
2023/07/09 09:39:01;;;;;;;7.13;5.80;;;;;;;34.32;39.11;101600.53;5207999;28;19944;-68
2023/07/09 09:41:36;;;;;;;6.20;5.43;;;;;;;34.25;38.38;101599.97;5207625;28;20033;-69
2023/07/09 09:44:18;;;;;;;7.40;4.82;;;;;;;34.59;38.75;101596.75;5209114;28;20057;-68
2023/07/09 09:46:50;;;;;;;6.15;4.72;;;;;;;34.57;37.92;101590.75;5209096;28;20044;-69
2023/07/09 09:49:21;;;;;;;6.80;4.30;;;;;;;34.51;35.52;101589.94;5209364;28;20030;-69
2023/07/09 09:51:56;;;;;;;;;;;;;;;35.49;37.04;101588.63;5208380;28;20538;-68
2023/07/09 09:54:30;;;;;;;6.22;5.03;;;;;;;34.69;35.68;101576.84;5208535;28;20298;-69
2023/07/09 09:57:02;;;;;;;7.63;4.75;;;;;;;34.85;35.85;101579.28;5208712;28;20948;-67
2023/07/09 09:59:35;;;;;;;;;;;;;;;35.76;36.62;101577.34;5208578;28;20050;-66
2023/07/09 10:02:19;;;;;;;22.92;5.25;;;;;;;35.26;35.46;101578.34;5209096;28;19913;-67
2023/07/09 10:04:52;;;;;;;7.13;4.28;;;;;;;34.86;35.80;101580.09;5208656;28;20026;-68
2023/07/09 10:07:38;;;;;;;7.40;4.13;;;;;;;35.43;34.76;101586.22;5208343;28;20127;-67
2023/07/09 10:10:19;;;;;;;7.10;4.35;;;;;;;35.14;35.52;101581.41;5208409;28;20562;-68
2023/07/09 10:13:15;;;;;;;7.68;4.28;;;;;;;35.49;35.48;101580.47;5209317;28;20073;-68
2023/07/09 10:15:56;;;;;;;7.80;4.40;;;;;;;35.52;34.59;101584.56;5206940;28;20124;-70
2023/07/09 10:18:38;;;;;;;7.35;5.20;;;;;;;35.63;35.00;101597.03;5210264;28;20038;-68
2023/07/09 10:21:26;;;;;;;7.07;5.07;;;;;;;35.65;34.08;101603.03;5211151;28;20029;-68
2023/07/09 10:24:29;;;;;;;13.95;4.57;;;;;;;36.00;34.49;101610.22;5211373;28;20053;-69
2023/07/09 10:27:12;;;;;;;6.18;4.30;;;;;;;36.03;34.61;101606.94;5209460;28;20129;-69
2023/07/09 10:30:03;;;;;;;5.65;4.50;;;;;;;35.94;33.93;101605.84;5210879;28;20391;-67
2023/07/09 10:33:11;;;;;;;6.10;4.65;;;;;;;36.35;34.54;101621.16;5212279;28;20041;-69
2023/07/09 10:36:21;;;;;;;6.60;4.30;;;;;;;36.36;34.41;101607.22;5195210;28;20057;-69
2023/07/09 10:39:14;;;;;;;9.65;4.03;;;;;;;36.41;33.65;101614.56;5205338;28;20491;-69
2023/07/09 10:41:49;;;;;;;7.25;3.90;;;;;;;36.08;33.85;101616.16;5208286;28;20056;-69
2023/07/09 10:44:41;;;;;;;6.57;4.15;;;;;;;36.57;33.79;101613.34;5207966;28;20025;-69
2023/07/09 10:47:23;;;;;;;;;;;;;;;37.24;33.02;101613.50;5209763;28;20458;-69
2023/07/09 10:49:56;;;;;;;6.40;4.38;;;;;;;36.42;33.55;101597.09;5209259;28;19971;-68
2023/07/09 10:52:34;;;;;;;6.03;4.38;;;;;;;36.30;32.52;101594.72;5209125;28;20611;-69
2023/07/09 10:55:34;;;;;;;6.75;4.40;;;;;;;36.48;32.97;101595.94;5209269;28;20119;-68
2023/07/09 10:58:24;;;;;;;8.18;4.60;;;;;;;36.75;33.94;101593.53;5206960;28;20629;-68
2023/07/09 11:00:57;;;;;;;6.85;4.30;;;;;;;36.69;35.23;101585.66;5182950;28;20040;-69
2023/07/09 11:03:50;;;;;;;5.93;4.60;;;;;;;37.08;33.42;101582.00;5182577;28;20030;-68
2023/07/09 11:06:31;;;;;;;7.22;4.40;;;;;;;36.66;33.38;101594.44;5186794;28;20030;-69
2023/07/09 11:09:09;;;;;;;8.32;4.22;;;;;;;36.39;32.50;101595.72;5190683;28;20492;-69
2023/07/09 11:11:48;;;;;;;7.80;4.50;;;;;;;36.72;33.29;101593.28;5190105;28;20125;-69
2023/07/09 11:14:38;;;;;;;6.40;4.30;;;;;;;36.94;33.29;101598.25;5185992;28;20030;-68
2023/07/09 11:17:16;;;;;;;7.75;4.15;;;;;;;36.78;34.51;101609.31;5189553;28;20117;-69
2023/07/09 11:19:53;;;;;;;6.53;4.60;;;;;;;36.81;34.36;101618.03;5189602;28;20080;-69
2023/07/09 11:22:44;;;;;;;6.65;4.40;;;;;;;36.87;33.33;101617.72;5186985;28;20026;-67
2023/07/09 11:25:31;;;;;;;8.13;4.75;;;;;;;37.01;34.60;101613.22;5189922;28;20092;-67
2023/07/09 11:28:05;;;;;;;6.57;4.53;;;;;;;36.65;34.13;101615.47;5189524;28;20336;-69
2023/07/09 11:30:54;;;;;;;6.90;4.38;;;;;;;37.03;35.42;101615.66;5187453;28;20357;-70
2023/07/09 11:33:27;;;;;;;7.65;4.50;;;;;;;36.81;34.51;101602.47;5187798;28;20026;-70
2023/07/09 11:36:15;;;;;;;8.45;4.10;;;;;;;36.98;34.44;101600.16;5187689;28;20034;-68
2023/07/09 11:38:47;;;;;;;7.85;4.13;;;;;;;36.53;34.87;101612.31;5189580;28;20038;-68
2023/07/09 11:41:33;;;;;;;7.07;4.50;;;;;;;36.92;34.91;101619.56;5188975;28;20035;-70
2023/07/09 11:44:15;;;;;;;6.60;4.55;;;;;;;36.58;34.86;101616.91;5189612;28;20050;-67
2023/07/09 11:46:52;;;;;;;8.25;4.45;;;;;;;36.52;34.71;101621.56;5189020;28;20027;-70
2023/07/09 11:49:31;;;;;;;5.43;3.83;;;;;;;36.35;34.94;101626.63;5188139;28;20042;-67
2023/07/09 11:52:04;;;;;;;3.95;3.55;;;;;;;36.11;35.66;101632.78;5185135;28;20034;-69
2023/07/09 11:54:37;;;;;;;5.78;4.00;;;;;;;36.03;35.50;101634.19;5181926;28;20439;-69